DLH881 EETN-EDDF
Flight info
| Callsign | DLH881 |
|---|---|
| Flight time | 2h 9m |
| Altitude | 34000 |
| Route | LONSA1T LONSA DCT SUVIX DCT PIMEX P739 DEREX DCT KOLJA DCT GOSOT DCT BANUB DCT POVEL DCT RIMET/N0411F310 T157 KOKEB/N0357F230 T157 KERAX KERAX5A |
| Aircraft | A21N/M-SDE2E3FGHIRWXY/LB1 |
Departure
| Time | 2026-05-06 09:32 |
|---|---|
| Airport | Lennart Meri Tallinn Airport (EETN) |
Arrival
| Time | 2026-05-06 11:42 |
|---|---|
| Airport | Frankfurt Main Airport (EDDF) |
| Time | Latitude | Longitude | Altitude | Speed | Heading |
|---|---|---|---|---|---|
| 2026-05-06 08:59 | 59.41695 | 24.80265 | 167 ft | 0 kts | 181° |
| 2026-05-06 09:20 | 59.41715 | 24.80264 | 167 ft | 4 kts | 172° |
| 2026-05-06 09:21 | 59.41739 | 24.80248 | 167 ft | 4 kts | 140° |
| 2026-05-06 09:21 | 59.41749 | 24.80215 | 167 ft | 1 kts | 91° |
| 2026-05-06 09:21 | 59.41749 | 24.80214 | 167 ft | 0 kts | 91° |
| 2026-05-06 09:24 | 59.41749 | 24.80217 | 167 ft | 1 kts | 91° |
| 2026-05-06 09:24 | 59.41749 | 24.80263 | 167 ft | 6 kts | 91° |
| 2026-05-06 09:24 | 59.41743 | 24.80339 | 167 ft | 7 kts | 100° |
| 2026-05-06 09:25 | 59.41728 | 24.80446 | 167 ft | 9 kts | 129° |
| 2026-05-06 09:25 | 59.41670 | 24.80514 | 167 ft | 11 kts | 182° |
| 2026-05-06 09:25 | 59.41587 | 24.80506 | 167 ft | 13 kts | 180° |
| 2026-05-06 09:25 | 59.41510 | 24.80571 | 167 ft | 14 kts | 107° |
| 2026-05-06 09:26 | 59.41506 | 24.80776 | 167 ft | 16 kts | 90° |
| 2026-05-06 09:26 | 59.41507 | 24.81002 | 167 ft | 17 kts | 89° |
| 2026-05-06 09:26 | 59.41505 | 24.81246 | 167 ft | 19 kts | 91° |
| 2026-05-06 09:26 | 59.41504 | 24.81508 | 167 ft | 20 kts | 91° |
| 2026-05-06 09:27 | 59.41502 | 24.81786 | 167 ft | 21 kts | 90° |
| 2026-05-06 09:27 | 59.41505 | 24.82080 | 167 ft | 22 kts | 89° |
| 2026-05-06 09:27 | 59.41501 | 24.82390 | 167 ft | 23 kts | 90° |
| 2026-05-06 09:27 | 59.41501 | 24.82716 | 167 ft | 24 kts | 90° |
| 2026-05-06 09:28 | 59.41500 | 24.83059 | 167 ft | 26 kts | 90° |
| 2026-05-06 09:28 | 59.41499 | 24.83418 | 167 ft | 27 kts | 90° |
| 2026-05-06 09:28 | 59.41498 | 24.83793 | 167 ft | 28 kts | 90° |
| 2026-05-06 09:28 | 59.41497 | 24.84184 | 167 ft | 29 kts | 90° |
| 2026-05-06 09:29 | 59.41496 | 24.84589 | 167 ft | 28 kts | 90° |
| 2026-05-06 09:29 | 59.41496 | 24.84963 | 167 ft | 28 kts | 90° |
| 2026-05-06 09:29 | 59.41495 | 24.85351 | 167 ft | 29 kts | 90° |
| 2026-05-06 09:29 | 59.41495 | 24.85753 | 167 ft | 28 kts | 90° |
| 2026-05-06 09:30 | 59.41494 | 24.86140 | 167 ft | 27 kts | 90° |
| 2026-05-06 09:30 | 59.41492 | 24.86437 | 167 ft | 20 kts | 90° |
| 2026-05-06 09:30 | 59.41492 | 24.86611 | 167 ft | 15 kts | 91° |
| 2026-05-06 09:30 | 59.41479 | 24.86806 | 167 ft | 15 kts | 118° |
| 2026-05-06 09:31 | 59.41347 | 24.86864 | 168 ft | 17 kts | 218° |
| 2026-05-06 09:31 | 59.41315 | 24.86705 | 168 ft | 0 kts | 271° |
| 2026-05-06 09:31 | 59.41316 | 24.86640 | 167 ft | 25 kts | 271° |
| 2026-05-06 09:32 | 59.41319 | 24.85785 | 168 ft | 99 kts | 271° |
| 2026-05-06 09:32 | 59.41322 | 24.84006 | 167 ft | 158 kts | 272° |
| 2026-05-06 09:32 | 59.41347 | 24.81780 | 698 ft | 159 kts | 273° |
| 2026-05-06 09:32 | 59.41306 | 24.79611 | 1440 ft | 159 kts | 267° |
| 2026-05-06 09:33 | 59.41051 | 24.77521 | 2155 ft | 159 kts | 246° |
| 2026-05-06 09:33 | 59.40384 | 24.75697 | 2685 ft | 169 kts | 234° |
| 2026-05-06 09:33 | 59.39695 | 24.73828 | 3347 ft | 171 kts | 238° |
| 2026-05-06 09:33 | 59.38990 | 24.71788 | 3757 ft | 191 kts | 238° |
| 2026-05-06 09:34 | 59.38212 | 24.69514 | 4230 ft | 210 kts | 238° |
| 2026-05-06 09:34 | 59.37346 | 24.66973 | 4594 ft | 237 kts | 237° |
| 2026-05-06 09:34 | 59.36394 | 24.64181 | 5131 ft | 254 kts | 237° |
| 2026-05-06 09:34 | 59.35391 | 24.61256 | 5908 ft | 261 kts | 237° |
| 2026-05-06 09:35 | 59.34382 | 24.58324 | 6778 ft | 264 kts | 238° |
| 2026-05-06 09:35 | 59.33350 | 24.55332 | 7653 ft | 265 kts | 238° |
| 2026-05-06 09:35 | 59.32315 | 24.52331 | 8535 ft | 267 kts | 238° |
| 2026-05-06 09:35 | 59.31270 | 24.49306 | 9428 ft | 268 kts | 239° |
| 2026-05-06 09:36 | 59.30222 | 24.46269 | 10217 ft | 273 kts | 239° |
| 2026-05-06 09:36 | 59.29133 | 24.43102 | 10623 ft | 289 kts | 239° |
| 2026-05-06 09:36 | 59.27984 | 24.39778 | 11146 ft | 298 kts | 239° |
| 2026-05-06 09:36 | 59.26814 | 24.36404 | 11945 ft | 301 kts | 239° |
| 2026-05-06 09:37 | 59.25637 | 24.33014 | 12790 ft | 301 kts | 240° |
| 2026-05-06 09:37 | 59.24456 | 24.29619 | 13670 ft | 301 kts | 240° |
| 2026-05-06 09:37 | 59.23275 | 24.26231 | 14441 ft | 302 kts | 240° |
| 2026-05-06 09:37 | 59.22095 | 24.22847 | 15194 ft | 303 kts | 240° |
| 2026-05-06 09:38 | 59.20907 | 24.19451 | 15938 ft | 304 kts | 240° |
| 2026-05-06 09:38 | 59.19710 | 24.16035 | 16675 ft | 305 kts | 240° |
| 2026-05-06 09:38 | 59.18524 | 24.12651 | 17401 ft | 307 kts | 239° |
| 2026-05-06 09:38 | 59.17316 | 24.09212 | 18115 ft | 308 kts | 239° |
| 2026-05-06 09:39 | 59.16098 | 24.05748 | 18760 ft | 310 kts | 239° |
| 2026-05-06 09:39 | 59.14875 | 24.02276 | 19372 ft | 311 kts | 239° |
| 2026-05-06 09:39 | 59.13645 | 23.98789 | 19988 ft | 313 kts | 239° |
| 2026-05-06 09:39 | 59.12410 | 23.95290 | 20580 ft | 314 kts | 239° |
| 2026-05-06 09:40 | 59.11169 | 23.91779 | 21121 ft | 316 kts | 239° |
| 2026-05-06 09:40 | 59.09919 | 23.88256 | 21718 ft | 317 kts | 239° |
| 2026-05-06 09:40 | 59.07475 | 23.81088 | 22890 ft | 319 kts | 242° |
| 2026-05-06 09:41 | 59.06332 | 23.77386 | 23460 ft | 320 kts | 243° |
| 2026-05-06 09:41 | 59.05190 | 23.73664 | 23945 ft | 321 kts | 243° |
| 2026-05-06 09:41 | 59.04039 | 23.69927 | 24416 ft | 323 kts | 243° |
| 2026-05-06 09:41 | 59.02883 | 23.66186 | 24885 ft | 324 kts | 243° |
| 2026-05-06 09:42 | 59.01721 | 23.62428 | 25335 ft | 325 kts | 243° |
| 2026-05-06 09:42 | 59.00553 | 23.58659 | 25790 ft | 326 kts | 243° |
| 2026-05-06 09:42 | 58.99379 | 23.54879 | 26218 ft | 328 kts | 243° |
| 2026-05-06 09:42 | 58.98191 | 23.51062 | 26587 ft | 332 kts | 243° |
| 2026-05-06 09:43 | 58.96986 | 23.47200 | 26893 ft | 337 kts | 243° |
| 2026-05-06 09:43 | 58.95781 | 23.43339 | 27123 ft | 343 kts | 243° |
| 2026-05-06 09:43 | 58.94532 | 23.39337 | 27257 ft | 351 kts | 242° |
| 2026-05-06 09:43 | 58.93245 | 23.35227 | 27378 ft | 360 kts | 242° |
| 2026-05-06 09:44 | 58.91929 | 23.31040 | 27439 ft | 369 kts | 242° |
| 2026-05-06 09:44 | 58.90583 | 23.26766 | 27584 ft | 376 kts | 242° |
| 2026-05-06 09:44 | 58.89216 | 23.22436 | 27924 ft | 377 kts | 242° |
| 2026-05-06 09:44 | 58.87846 | 23.18106 | 28415 ft | 376 kts | 242° |
| 2026-05-06 09:45 | 58.86483 | 23.13802 | 28911 ft | 374 kts | 242° |
| 2026-05-06 09:45 | 58.85132 | 23.09538 | 29402 ft | 371 kts | 242° |
| 2026-05-06 09:45 | 58.83785 | 23.05299 | 29895 ft | 369 kts | 242° |
| 2026-05-06 09:45 | 58.82461 | 23.01135 | 30322 ft | 367 kts | 242° |
| 2026-05-06 09:46 | 58.81129 | 22.96951 | 30676 ft | 366 kts | 242° |
| 2026-05-06 09:46 | 58.79797 | 22.92775 | 31009 ft | 365 kts | 242° |
| 2026-05-06 09:46 | 58.78466 | 22.88612 | 31336 ft | 364 kts | 242° |
| 2026-05-06 09:46 | 58.77132 | 22.84450 | 31645 ft | 364 kts | 242° |
| 2026-05-06 09:47 | 58.75801 | 22.80303 | 31953 ft | 363 kts | 242° |
| 2026-05-06 09:47 | 58.74474 | 22.76175 | 32245 ft | 362 kts | 242° |
| 2026-05-06 09:47 | 58.73148 | 22.72055 | 32482 ft | 362 kts | 241° |
| 2026-05-06 09:47 | 58.71817 | 22.67922 | 32684 ft | 364 kts | 241° |
| 2026-05-06 09:48 | 58.70483 | 22.63789 | 32922 ft | 364 kts | 241° |
| 2026-05-06 09:48 | 58.69143 | 22.59646 | 33199 ft | 363 kts | 241° |
| 2026-05-06 09:48 | 58.67807 | 22.55591 | 33466 ft | 363 kts | 240° |
| 2026-05-06 09:48 | 58.66432 | 22.51534 | 33783 ft | 362 kts | 240° |
| 2026-05-06 09:49 | 58.65054 | 22.47483 | 34021 ft | 361 kts | 240° |
| 2026-05-06 09:49 | 58.63679 | 22.43441 | 34062 ft | 363 kts | 240° |
| 2026-05-06 09:49 | 58.60916 | 22.35311 | 34050 ft | 364 kts | 240° |
| 2026-05-06 09:50 | 58.58141 | 22.27163 | 34049 ft | 364 kts | 240° |
| 2026-05-06 09:50 | 58.55362 | 22.19033 | 34042 ft | 364 kts | 240° |
| 2026-05-06 09:51 | 58.52580 | 22.10916 | 34020 ft | 365 kts | 239° |
| 2026-05-06 09:51 | 58.49802 | 22.02838 | 34036 ft | 366 kts | 239° |
| 2026-05-06 09:52 | 58.46998 | 21.94707 | 34045 ft | 366 kts | 239° |
| 2026-05-06 09:52 | 58.44192 | 21.86603 | 34044 ft | 366 kts | 239° |
| 2026-05-06 09:53 | 58.41373 | 21.78498 | 34044 ft | 366 kts | 239° |
| 2026-05-06 09:53 | 58.38551 | 21.70409 | 34044 ft | 366 kts | 239° |
| 2026-05-06 09:54 | 58.35741 | 21.62390 | 34044 ft | 366 kts | 239° |
| 2026-05-06 09:54 | 58.32913 | 21.54326 | 34055 ft | 366 kts | 238° |
| 2026-05-06 09:55 | 58.30076 | 21.46280 | 34051 ft | 366 kts | 238° |
| 2026-05-06 09:55 | 58.27234 | 21.38237 | 34048 ft | 366 kts | 238° |
| 2026-05-06 09:56 | 58.24387 | 21.30208 | 34044 ft | 366 kts | 238° |
| 2026-05-06 09:56 | 58.21505 | 21.22238 | 34043 ft | 367 kts | 235° |
| 2026-05-06 09:57 | 58.17987 | 21.15148 | 34045 ft | 370 kts | 229° |
| 2026-05-06 09:57 | 58.14329 | 21.08276 | 34045 ft | 370 kts | 229° |
| 2026-05-06 09:58 | 58.10667 | 21.01381 | 34036 ft | 372 kts | 228° |
| 2026-05-06 09:58 | 58.06999 | 20.94487 | 34041 ft | 372 kts | 228° |
| 2026-05-06 09:59 | 58.03322 | 20.87593 | 34047 ft | 372 kts | 228° |
| 2026-05-06 09:59 | 57.99643 | 20.80715 | 34036 ft | 372 kts | 228° |
| 2026-05-06 10:00 | 57.95983 | 20.73897 | 34039 ft | 372 kts | 228° |
| 2026-05-06 10:00 | 57.92289 | 20.67030 | 34041 ft | 372 kts | 228° |
| 2026-05-06 10:01 | 57.88593 | 20.60180 | 34020 ft | 374 kts | 227° |
| 2026-05-06 10:01 | 57.84880 | 20.53328 | 34036 ft | 374 kts | 227° |
| 2026-05-06 10:02 | 57.81184 | 20.46522 | 34036 ft | 375 kts | 227° |
| 2026-05-06 10:02 | 57.77468 | 20.39709 | 34048 ft | 371 kts | 227° |
| 2026-05-06 10:03 | 57.73775 | 20.32954 | 34040 ft | 371 kts | 227° |
| 2026-05-06 10:03 | 57.70079 | 20.26209 | 34035 ft | 371 kts | 227° |
| 2026-05-06 10:04 | 57.66434 | 20.19292 | 34020 ft | 375 kts | 230° |
| 2026-05-06 10:04 | 57.63049 | 20.11924 | 34031 ft | 376 kts | 230° |
| 2026-05-06 10:05 | 57.59645 | 20.04514 | 34031 ft | 376 kts | 230° |
| 2026-05-06 10:05 | 57.56233 | 19.97116 | 34031 ft | 376 kts | 230° |
| 2026-05-06 10:06 | 57.52816 | 19.89740 | 34030 ft | 376 kts | 230° |
| 2026-05-06 10:06 | 57.49392 | 19.82365 | 34030 ft | 376 kts | 230° |
| 2026-05-06 10:07 | 57.45960 | 19.75000 | 33989 ft | 381 kts | 230° |
| 2026-05-06 10:07 | 57.42465 | 19.67523 | 34023 ft | 389 kts | 230° |
| 2026-05-06 10:08 | 57.38901 | 19.59926 | 34024 ft | 390 kts | 230° |
| 2026-05-06 10:08 | 57.35336 | 19.52356 | 34021 ft | 390 kts | 230° |
| 2026-05-06 10:09 | 57.31759 | 19.44780 | 34023 ft | 390 kts | 230° |
| 2026-05-06 10:09 | 57.28193 | 19.37254 | 34038 ft | 385 kts | 229° |
| 2026-05-06 10:10 | 57.24684 | 19.29878 | 34024 ft | 382 kts | 229° |
| 2026-05-06 10:10 | 57.21172 | 19.22508 | 34023 ft | 382 kts | 229° |
| 2026-05-06 10:11 | 57.17672 | 19.15180 | 34021 ft | 382 kts | 229° |
| 2026-05-06 10:11 | 57.14155 | 19.07851 | 34021 ft | 382 kts | 229° |
| 2026-05-06 10:12 | 57.10631 | 19.00529 | 34017 ft | 382 kts | 229° |
| 2026-05-06 10:12 | 57.07101 | 18.93220 | 34018 ft | 382 kts | 229° |
| 2026-05-06 10:13 | 57.03566 | 18.85920 | 33980 ft | 385 kts | 229° |
| 2026-05-06 10:13 | 56.99972 | 18.78519 | 34001 ft | 390 kts | 229° |
| 2026-05-06 10:14 | 56.96360 | 18.71105 | 34011 ft | 390 kts | 229° |
| 2026-05-06 10:14 | 56.92743 | 18.63702 | 33994 ft | 390 kts | 229° |
| 2026-05-06 10:15 | 56.89121 | 18.56305 | 33995 ft | 390 kts | 229° |
| 2026-05-06 10:15 | 56.85501 | 18.48946 | 34003 ft | 390 kts | 229° |
| 2026-05-06 10:16 | 56.81864 | 18.41573 | 33989 ft | 391 kts | 229° |
| 2026-05-06 10:16 | 56.78236 | 18.34248 | 33995 ft | 391 kts | 228° |
| 2026-05-06 10:17 | 56.74581 | 18.26889 | 33985 ft | 392 kts | 228° |
| 2026-05-06 10:17 | 56.70923 | 18.19540 | 33995 ft | 391 kts | 228° |
| 2026-05-06 10:18 | 56.67257 | 18.12203 | 33993 ft | 392 kts | 228° |
| 2026-05-06 10:18 | 56.63593 | 18.04886 | 33993 ft | 391 kts | 228° |
| 2026-05-06 10:19 | 56.59920 | 17.97578 | 33976 ft | 393 kts | 228° |
| 2026-05-06 10:19 | 56.56846 | 17.91482 | 33985 ft | 394 kts | 228° |
| 2026-05-06 10:20 | 56.53145 | 17.84169 | 33983 ft | 393 kts | 227° |
| 2026-05-06 10:20 | 56.48839 | 17.75681 | 33981 ft | 393 kts | 227° |
| 2026-05-06 10:21 | 56.45756 | 17.69614 | 33984 ft | 393 kts | 227° |
| 2026-05-06 10:21 | 56.42046 | 17.62346 | 33976 ft | 393 kts | 227° |
| 2026-05-06 10:22 | 56.38324 | 17.55074 | 33962 ft | 397 kts | 227° |
| 2026-05-06 10:22 | 56.34554 | 17.47732 | 33978 ft | 399 kts | 227° |
| 2026-05-06 10:23 | 56.30771 | 17.40392 | 33979 ft | 399 kts | 226° |
| 2026-05-06 10:23 | 56.26983 | 17.33067 | 33966 ft | 399 kts | 226° |
| 2026-05-06 10:24 | 56.23201 | 17.25769 | 33968 ft | 399 kts | 226° |
| 2026-05-06 10:24 | 56.19441 | 17.18542 | 33968 ft | 398 kts | 226° |
| 2026-05-06 10:25 | 56.15635 | 17.11242 | 33956 ft | 404 kts | 226° |
| 2026-05-06 10:25 | 56.11785 | 17.03887 | 33963 ft | 404 kts | 226° |
| 2026-05-06 10:26 | 56.07928 | 16.96534 | 33953 ft | 405 kts | 226° |
| 2026-05-06 10:26 | 56.04066 | 16.89198 | 33953 ft | 405 kts | 226° |
| 2026-05-06 10:27 | 56.00197 | 16.81890 | 33948 ft | 405 kts | 225° |
| 2026-05-06 10:27 | 55.96147 | 16.74897 | 33930 ft | 405 kts | 223° |
| 2026-05-06 10:28 | 55.92055 | 16.67934 | 33946 ft | 410 kts | 223° |
| 2026-05-06 10:28 | 55.87925 | 16.60918 | 33939 ft | 410 kts | 223° |
| 2026-05-06 10:29 | 55.83785 | 16.53914 | 33943 ft | 410 kts | 223° |
| 2026-05-06 10:29 | 55.79641 | 16.46921 | 33935 ft | 410 kts | 223° |
| 2026-05-06 10:30 | 55.75521 | 16.39983 | 33935 ft | 410 kts | 223° |
| 2026-05-06 10:30 | 55.71365 | 16.33019 | 33924 ft | 412 kts | 222° |
| 2026-05-06 10:31 | 55.67194 | 16.26040 | 33927 ft | 412 kts | 222° |
| 2026-05-06 10:31 | 55.63021 | 16.19081 | 33923 ft | 412 kts | 222° |
| 2026-05-06 10:32 | 55.58849 | 16.12140 | 33920 ft | 412 kts | 222° |
| 2026-05-06 10:32 | 55.54674 | 16.05225 | 33915 ft | 412 kts | 221° |
| 2026-05-06 10:33 | 55.50487 | 15.98309 | 33917 ft | 413 kts | 221° |
| 2026-05-06 10:33 | 55.46298 | 15.91403 | 33912 ft | 414 kts | 221° |
| 2026-05-06 10:34 | 55.42077 | 15.84476 | 33914 ft | 414 kts | 221° |
| 2026-05-06 10:34 | 55.37861 | 15.77574 | 33909 ft | 414 kts | 221° |
| 2026-05-06 10:35 | 55.33636 | 15.70678 | 33903 ft | 414 kts | 221° |
| 2026-05-06 10:35 | 55.29444 | 15.63856 | 33905 ft | 415 kts | 220° |
| 2026-05-06 10:36 | 55.25154 | 15.56901 | 33903 ft | 423 kts | 220° |
| 2026-05-06 10:36 | 55.20823 | 15.49892 | 33897 ft | 423 kts | 220° |
| 2026-05-06 10:37 | 55.16497 | 15.42918 | 33897 ft | 423 kts | 220° |
| 2026-05-06 10:37 | 55.12160 | 15.35948 | 33889 ft | 423 kts | 220° |
| 2026-05-06 10:38 | 55.07824 | 15.29002 | 33888 ft | 423 kts | 220° |
| 2026-05-06 10:38 | 55.03483 | 15.22076 | 33884 ft | 422 kts | 220° |
| 2026-05-06 10:39 | 54.99168 | 15.15211 | 33887 ft | 423 kts | 220° |
| 2026-05-06 10:39 | 54.94821 | 15.08308 | 33880 ft | 423 kts | 220° |
| 2026-05-06 10:40 | 54.90475 | 15.01430 | 33881 ft | 423 kts | 220° |
| 2026-05-06 10:40 | 54.86115 | 14.94554 | 33875 ft | 423 kts | 220° |
| 2026-05-06 10:41 | 54.81738 | 14.87665 | 33874 ft | 425 kts | 220° |
| 2026-05-06 10:41 | 54.77419 | 14.80645 | 33874 ft | 426 kts | 221° |
| 2026-05-06 10:42 | 54.73134 | 14.73587 | 33876 ft | 426 kts | 221° |
| 2026-05-06 10:42 | 54.68844 | 14.66549 | 33870 ft | 427 kts | 221° |
| 2026-05-06 10:43 | 54.64521 | 14.59478 | 33860 ft | 428 kts | 221° |
| 2026-05-06 10:44 | 54.58001 | 14.48858 | 33856 ft | 429 kts | 221° |
| 2026-05-06 10:44 | 54.53666 | 14.41815 | 33854 ft | 428 kts | 221° |
| 2026-05-06 10:45 | 54.49330 | 14.34801 | 33852 ft | 428 kts | 221° |
| 2026-05-06 10:45 | 54.45009 | 14.27834 | 33848 ft | 428 kts | 221° |
| 2026-05-06 10:46 | 54.40649 | 14.20849 | 33860 ft | 428 kts | 221° |
| 2026-05-06 10:46 | 54.36281 | 14.13871 | 33857 ft | 428 kts | 221° |
| 2026-05-06 10:47 | 54.31915 | 14.06922 | 33835 ft | 429 kts | 221° |
| 2026-05-06 10:47 | 54.27546 | 13.99986 | 33848 ft | 427 kts | 221° |
| 2026-05-06 10:48 | 54.23199 | 13.93103 | 33850 ft | 428 kts | 221° |
| 2026-05-06 10:48 | 54.18787 | 13.86144 | 33861 ft | 434 kts | 221° |
| 2026-05-06 10:49 | 54.14333 | 13.79142 | 33840 ft | 435 kts | 221° |
| 2026-05-06 10:49 | 54.09873 | 13.72150 | 33836 ft | 436 kts | 221° |
| 2026-05-06 10:50 | 54.05405 | 13.65168 | 33845 ft | 435 kts | 221° |
| 2026-05-06 10:50 | 54.00967 | 13.58246 | 33837 ft | 436 kts | 221° |
| 2026-05-06 10:51 | 53.96489 | 13.51283 | 33831 ft | 434 kts | 221° |
| 2026-05-06 10:51 | 53.92031 | 13.44377 | 33841 ft | 434 kts | 221° |
| 2026-05-06 10:52 | 53.87575 | 13.37491 | 33841 ft | 434 kts | 221° |
| 2026-05-06 10:52 | 53.83101 | 13.30599 | 33834 ft | 434 kts | 221° |
| 2026-05-06 10:53 | 53.78661 | 13.23786 | 33836 ft | 434 kts | 221° |
| 2026-05-06 10:53 | 53.74171 | 13.16911 | 33836 ft | 429 kts | 221° |
| 2026-05-06 10:54 | 53.69771 | 13.10195 | 33831 ft | 430 kts | 221° |
| 2026-05-06 10:54 | 53.65314 | 13.03416 | 33834 ft | 432 kts | 221° |
| 2026-05-06 10:55 | 53.60833 | 12.96623 | 33821 ft | 432 kts | 221° |
| 2026-05-06 10:55 | 53.56359 | 12.89852 | 33827 ft | 432 kts | 221° |
| 2026-05-06 10:56 | 53.51892 | 12.83113 | 33832 ft | 431 kts | 221° |
| 2026-05-06 10:56 | 53.47449 | 12.76432 | 33827 ft | 431 kts | 221° |
| 2026-05-06 10:57 | 53.42948 | 12.69684 | 33823 ft | 431 kts | 221° |
| 2026-05-06 10:57 | 53.38502 | 12.63042 | 33826 ft | 431 kts | 221° |
| 2026-05-06 10:58 | 53.34024 | 12.56375 | 33818 ft | 431 kts | 221° |
| 2026-05-06 10:58 | 53.29561 | 12.49733 | 33812 ft | 427 kts | 220° |
| 2026-05-06 10:59 | 53.25107 | 12.43128 | 33810 ft | 427 kts | 220° |
| 2026-05-06 10:59 | 53.20657 | 12.36555 | 33810 ft | 427 kts | 220° |
| 2026-05-06 11:00 | 53.16208 | 12.30015 | 33817 ft | 430 kts | 220° |
| 2026-05-06 11:00 | 53.11695 | 12.23389 | 33815 ft | 430 kts | 220° |
| 2026-05-06 11:01 | 53.07260 | 12.16883 | 33812 ft | 426 kts | 220° |
| 2026-05-06 11:01 | 53.02793 | 12.10351 | 33811 ft | 428 kts | 220° |
| 2026-05-06 11:02 | 52.98313 | 12.03821 | 33815 ft | 428 kts | 220° |
| 2026-05-06 11:02 | 52.93832 | 11.97315 | 33810 ft | 428 kts | 220° |
| 2026-05-06 11:03 | 52.89236 | 11.91099 | 33806 ft | 423 kts | 214° |
| 2026-05-06 11:03 | 52.84385 | 11.85655 | 33805 ft | 423 kts | 213° |
| 2026-05-06 11:04 | 52.79498 | 11.80182 | 33821 ft | 428 kts | 213° |
| 2026-05-06 11:04 | 52.74559 | 11.74625 | 33807 ft | 429 kts | 213° |
| 2026-05-06 11:05 | 52.69619 | 11.69077 | 33810 ft | 430 kts | 213° |
| 2026-05-06 11:05 | 52.64685 | 11.63553 | 33801 ft | 426 kts | 214° |
| 2026-05-06 11:06 | 52.59816 | 11.58116 | 33802 ft | 420 kts | 213° |
| 2026-05-06 11:06 | 52.54954 | 11.52727 | 33806 ft | 426 kts | 213° |
| 2026-05-06 11:07 | 52.50023 | 11.47275 | 33798 ft | 428 kts | 213° |
| 2026-05-06 11:07 | 52.45120 | 11.41817 | 33793 ft | 428 kts | 214° |
| 2026-05-06 11:08 | 52.40176 | 11.36362 | 33797 ft | 428 kts | 213° |
| 2026-05-06 11:08 | 52.35228 | 11.30913 | 33797 ft | 428 kts | 214° |
| 2026-05-06 11:09 | 52.30281 | 11.25480 | 33790 ft | 428 kts | 213° |
| 2026-05-06 11:09 | 52.25332 | 11.20065 | 33789 ft | 428 kts | 213° |
| 2026-05-06 11:10 | 52.21223 | 11.15572 | 33790 ft | 426 kts | 214° |
| 2026-05-06 11:10 | 52.16325 | 11.10227 | 33790 ft | 422 kts | 214° |
| 2026-05-06 11:11 | 52.11431 | 11.04909 | 33791 ft | 425 kts | 214° |
| 2026-05-06 11:11 | 52.06504 | 10.99570 | 33791 ft | 425 kts | 214° |
| 2026-05-06 11:12 | 52.01574 | 10.94238 | 33791 ft | 425 kts | 214° |
| 2026-05-06 11:12 | 51.96669 | 10.88953 | 33780 ft | 420 kts | 214° |
| 2026-05-06 11:13 | 51.91847 | 10.83769 | 33786 ft | 419 kts | 214° |
| 2026-05-06 11:13 | 51.86957 | 10.78525 | 33779 ft | 423 kts | 214° |
| 2026-05-06 11:14 | 51.82050 | 10.73278 | 33783 ft | 424 kts | 213° |
| 2026-05-06 11:14 | 51.77111 | 10.68013 | 33770 ft | 425 kts | 213° |
| 2026-05-06 11:15 | 51.72180 | 10.62772 | 33771 ft | 424 kts | 213° |
| 2026-05-06 11:15 | 51.67249 | 10.57536 | 33761 ft | 424 kts | 213° |
| 2026-05-06 11:16 | 51.62324 | 10.52323 | 33345 ft | 420 kts | 213° |
| 2026-05-06 11:16 | 51.59882 | 10.49742 | 33027 ft | 420 kts | 213° |
| 2026-05-06 11:16 | 51.57432 | 10.47157 | 32735 ft | 421 kts | 213° |
| 2026-05-06 11:16 | 51.54987 | 10.44581 | 32356 ft | 418 kts | 213° |
| 2026-05-06 11:17 | 51.52558 | 10.42026 | 31616 ft | 418 kts | 213° |
| 2026-05-06 11:17 | 51.50128 | 10.39464 | 30812 ft | 419 kts | 213° |
| 2026-05-06 11:17 | 51.47679 | 10.36896 | 30012 ft | 420 kts | 213° |
| 2026-05-06 11:17 | 51.45263 | 10.34369 | 29088 ft | 421 kts | 213° |
| 2026-05-06 11:18 | 51.42810 | 10.31804 | 28172 ft | 421 kts | 213° |
| 2026-05-06 11:18 | 51.40353 | 10.29243 | 27140 ft | 421 kts | 213° |
| 2026-05-06 11:18 | 51.37873 | 10.26664 | 26110 ft | 428 kts | 213° |
| 2026-05-06 11:18 | 51.35289 | 10.24258 | 25359 ft | 431 kts | 207° |
| 2026-05-06 11:19 | 51.32472 | 10.22596 | 24926 ft | 434 kts | 197° |
| 2026-05-06 11:19 | 51.29472 | 10.21844 | 24772 ft | 439 kts | 186° |
| 2026-05-06 11:19 | 51.26408 | 10.21716 | 24730 ft | 441 kts | 183° |
| 2026-05-06 11:19 | 51.23346 | 10.21686 | 24726 ft | 441 kts | 183° |
| 2026-05-06 11:20 | 51.20273 | 10.21653 | 24731 ft | 441 kts | 183° |
| 2026-05-06 11:20 | 51.17217 | 10.21608 | 24265 ft | 434 kts | 184° |
| 2026-05-06 11:20 | 51.14203 | 10.21552 | 23286 ft | 433 kts | 184° |
| 2026-05-06 11:20 | 51.11194 | 10.21489 | 22057 ft | 433 kts | 184° |
| 2026-05-06 11:21 | 51.08195 | 10.21434 | 21370 ft | 426 kts | 183° |
| 2026-05-06 11:21 | 51.05230 | 10.21386 | 21021 ft | 426 kts | 183° |
| 2026-05-06 11:21 | 51.02265 | 10.21333 | 20691 ft | 424 kts | 183° |
| 2026-05-06 11:21 | 50.99337 | 10.21283 | 20348 ft | 416 kts | 183° |
| 2026-05-06 11:22 | 50.96517 | 10.21237 | 19996 ft | 403 kts | 183° |
| 2026-05-06 11:22 | 50.93754 | 10.21190 | 19647 ft | 396 kts | 183° |
| 2026-05-06 11:22 | 50.91006 | 10.21140 | 19301 ft | 394 kts | 183° |
| 2026-05-06 11:22 | 50.88269 | 10.21089 | 18945 ft | 393 kts | 183° |
| 2026-05-06 11:23 | 50.85545 | 10.20805 | 18589 ft | 390 kts | 192° |
| 2026-05-06 11:23 | 50.82960 | 10.19592 | 18237 ft | 387 kts | 203° |
| 2026-05-06 11:23 | 50.80596 | 10.17592 | 17875 ft | 385 kts | 214° |
| 2026-05-06 11:23 | 50.78532 | 10.14936 | 17494 ft | 382 kts | 224° |
| 2026-05-06 11:24 | 50.76822 | 10.11703 | 17127 ft | 382 kts | 234° |
| 2026-05-06 11:24 | 50.75510 | 10.08061 | 16779 ft | 381 kts | 242° |
| 2026-05-06 11:24 | 50.74349 | 10.04320 | 16422 ft | 379 kts | 243° |
| 2026-05-06 11:24 | 50.73192 | 10.00588 | 16065 ft | 378 kts | 242° |
| 2026-05-06 11:25 | 50.72026 | 9.96878 | 15716 ft | 375 kts | 242° |
| 2026-05-06 11:25 | 50.70860 | 9.93207 | 15367 ft | 374 kts | 242° |
| 2026-05-06 11:25 | 50.69686 | 9.89559 | 15020 ft | 372 kts | 242° |
| 2026-05-06 11:25 | 50.68521 | 9.85921 | 14682 ft | 370 kts | 242° |
| 2026-05-06 11:26 | 50.67358 | 9.82316 | 14356 ft | 368 kts | 242° |
| 2026-05-06 11:26 | 50.66194 | 9.78726 | 14014 ft | 367 kts | 242° |
| 2026-05-06 11:26 | 50.65039 | 9.75150 | 13672 ft | 365 kts | 242° |
| 2026-05-06 11:26 | 50.63867 | 9.71612 | 13296 ft | 363 kts | 239° |
| 2026-05-06 11:27 | 50.62354 | 9.68463 | 12922 ft | 361 kts | 225° |
| 2026-05-06 11:27 | 50.60379 | 9.66122 | 12574 ft | 360 kts | 210° |
| 2026-05-06 11:27 | 50.58089 | 9.64546 | 12239 ft | 359 kts | 202° |
| 2026-05-06 11:27 | 50.55754 | 9.63168 | 11907 ft | 358 kts | 202° |
| 2026-05-06 11:28 | 50.53444 | 9.61804 | 11593 ft | 348 kts | 202° |
| 2026-05-06 11:28 | 50.51251 | 9.60483 | 11357 ft | 333 kts | 202° |
| 2026-05-06 11:28 | 50.49132 | 9.59202 | 11167 ft | 318 kts | 203° |
| 2026-05-06 11:28 | 50.47226 | 9.57625 | 10968 ft | 302 kts | 218° |
| 2026-05-06 11:29 | 50.45737 | 9.55422 | 10792 ft | 287 kts | 227° |
| 2026-05-06 11:29 | 50.44438 | 9.53178 | 10608 ft | 275 kts | 228° |
| 2026-05-06 11:29 | 50.43156 | 9.50963 | 10205 ft | 272 kts | 228° |
| 2026-05-06 11:29 | 50.41893 | 9.48795 | 9860 ft | 267 kts | 227° |
| 2026-05-06 11:30 | 50.40628 | 9.46638 | 9549 ft | 266 kts | 227° |
| 2026-05-06 11:30 | 50.39378 | 9.44522 | 9247 ft | 263 kts | 227° |
| 2026-05-06 11:30 | 50.38131 | 9.42418 | 8695 ft | 266 kts | 227° |
| 2026-05-06 11:30 | 50.36869 | 9.40297 | 8325 ft | 264 kts | 227° |
| 2026-05-06 11:31 | 50.35633 | 9.38212 | 8101 ft | 264 kts | 227° |
| 2026-05-06 11:31 | 50.34384 | 9.36107 | 7947 ft | 264 kts | 227° |
| 2026-05-06 11:31 | 50.33140 | 9.34013 | 7799 ft | 263 kts | 227° |
| 2026-05-06 11:31 | 50.31899 | 9.31924 | 7616 ft | 259 kts | 227° |
| 2026-05-06 11:32 | 50.30683 | 9.29876 | 7383 ft | 255 kts | 227° |
| 2026-05-06 11:32 | 50.29480 | 9.27865 | 7135 ft | 250 kts | 227° |
| 2026-05-06 11:32 | 50.28300 | 9.25888 | 6892 ft | 246 kts | 227° |
| 2026-05-06 11:32 | 50.27141 | 9.23947 | 6658 ft | 242 kts | 227° |
| 2026-05-06 11:33 | 50.26002 | 9.22038 | 6420 ft | 239 kts | 227° |
| 2026-05-06 11:33 | 50.24865 | 9.20137 | 6179 ft | 240 kts | 227° |
| 2026-05-06 11:33 | 50.23733 | 9.18246 | 5946 ft | 236 kts | 227° |
| 2026-05-06 11:33 | 50.22608 | 9.16374 | 5699 ft | 236 kts | 227° |
| 2026-05-06 11:34 | 50.21479 | 9.14483 | 5465 ft | 237 kts | 227° |
| 2026-05-06 11:34 | 50.20359 | 9.12610 | 5233 ft | 235 kts | 227° |
| 2026-05-06 11:34 | 50.19246 | 9.10748 | 5002 ft | 236 kts | 227° |
| 2026-05-06 11:34 | 50.18124 | 9.08877 | 4774 ft | 235 kts | 226° |
| 2026-05-06 11:35 | 50.17006 | 9.07020 | 4528 ft | 234 kts | 226° |
| 2026-05-06 11:35 | 50.15893 | 9.05172 | 4289 ft | 232 kts | 227° |
| 2026-05-06 11:35 | 50.14820 | 9.03355 | 4097 ft | 223 kts | 231° |
| 2026-05-06 11:35 | 50.14049 | 9.01312 | 3960 ft | 218 kts | 245° |
| 2026-05-06 11:36 | 50.13597 | 8.99090 | 3957 ft | 217 kts | 250° |
| 2026-05-06 11:36 | 50.13080 | 8.96829 | 3964 ft | 220 kts | 248° |
| 2026-05-06 11:36 | 50.12566 | 8.94637 | 3982 ft | 217 kts | 248° |
| 2026-05-06 11:36 | 50.12047 | 8.92447 | 3972 ft | 210 kts | 248° |
| 2026-05-06 11:37 | 50.11561 | 8.90403 | 3958 ft | 193 kts | 248° |
| 2026-05-06 11:37 | 50.11083 | 8.88391 | 3969 ft | 197 kts | 248° |
| 2026-05-06 11:37 | 50.10616 | 8.86430 | 3960 ft | 197 kts | 248° |
| 2026-05-06 11:37 | 50.10147 | 8.84452 | 3820 ft | 195 kts | 247° |
| 2026-05-06 11:38 | 50.09677 | 8.82477 | 3587 ft | 194 kts | 248° |
| 2026-05-06 11:38 | 50.09209 | 8.80507 | 3348 ft | 194 kts | 248° |
| 2026-05-06 11:38 | 50.08741 | 8.78543 | 3084 ft | 191 kts | 248° |
| 2026-05-06 11:38 | 50.08294 | 8.76662 | 2863 ft | 181 kts | 248° |
| 2026-05-06 11:39 | 50.07864 | 8.74857 | 2601 ft | 174 kts | 248° |
| 2026-05-06 11:39 | 50.07454 | 8.73130 | 2357 ft | 166 kts | 248° |
| 2026-05-06 11:39 | 50.07063 | 8.71489 | 2159 ft | 158 kts | 248° |
| 2026-05-06 11:39 | 50.06694 | 8.69916 | 1934 ft | 152 kts | 251° |
| 2026-05-06 11:40 | 50.06513 | 8.68323 | 1690 ft | 147 kts | 264° |
| 2026-05-06 11:40 | 50.06419 | 8.66783 | 1439 ft | 138 kts | 255° |
| 2026-05-06 11:40 | 50.06130 | 8.65374 | 1299 ft | 137 kts | 247° |
| 2026-05-06 11:40 | 50.05783 | 8.63967 | 1109 ft | 139 kts | 245° |
| 2026-05-06 11:41 | 50.05414 | 8.62564 | 956 ft | 140 kts | 245° |
| 2026-05-06 11:41 | 50.05090 | 8.61144 | 766 ft | 139 kts | 246° |
| 2026-05-06 11:41 | 50.04751 | 8.59718 | 569 ft | 141 kts | 247° |
| 2026-05-06 11:41 | 50.04421 | 8.58310 | 389 ft | 138 kts | 246° |
| 2026-05-06 11:42 | 50.04119 | 8.57044 | 370 ft | 104 kts | 247° |
| 2026-05-06 11:42 | 50.03933 | 8.56287 | 361 ft | 46 kts | 251° |
| 2026-05-06 11:42 | 50.03865 | 8.55904 | 360 ft | 26 kts | 289° |
| 2026-05-06 11:42 | 50.03903 | 8.55707 | 354 ft | 13 kts | 278° |
| 2026-05-06 11:43 | 50.03959 | 8.55629 | 357 ft | 14 kts | 20° |
| 2026-05-06 11:43 | 50.04004 | 8.55767 | 359 ft | 16 kts | 71° |
| 2026-05-06 11:43 | 50.04044 | 8.55943 | 358 ft | 18 kts | 69° |
| 2026-05-06 11:44 | 50.04094 | 8.56143 | 359 ft | 4 kts | 69° |
| 2026-05-06 11:44 | 50.04113 | 8.56219 | 361 ft | 11 kts | 70° |
| 2026-05-06 11:44 | 50.04184 | 8.56250 | 361 ft | 14 kts | 336° |
| 2026-05-06 11:44 | 50.04276 | 8.56175 | 361 ft | 16 kts | 300° |
| 2026-05-06 11:45 | 50.04354 | 8.56047 | 363 ft | 17 kts | 340° |
| 2026-05-06 11:45 | 50.04442 | 8.56076 | 366 ft | 15 kts | 65° |
| 2026-05-06 11:45 | 50.04480 | 8.56237 | 363 ft | 17 kts | 69° |
| 2026-05-06 11:45 | 50.04527 | 8.56418 | 362 ft | 19 kts | 43° |
| 2026-05-06 11:46 | 50.04651 | 8.56511 | 364 ft | 18 kts | 25° |
| 2026-05-06 11:46 | 50.04699 | 8.56548 | 366 ft | 8 kts | 35° |
| 2026-05-06 11:46 | 50.04736 | 8.56617 | 361 ft | 9 kts | 53° |
| 2026-05-06 11:46 | 50.04747 | 8.56699 | 361 ft | 6 kts | 114° |
| 2026-05-06 11:47 | 50.04738 | 8.56730 | 367 ft | 2 kts | 114° |
| 2026-05-06 11:47 | 50.04737 | 8.56735 | 366 ft | 0 kts | 114° |
| 2026-05-06 11:51 | 50.04737 | 8.56736 | 366 ft | 0 kts | 114° |